createdAt,value
2022-10-06T00:00:40.257Z,0.52
2022-10-06T00:03:07.394Z,0.70
2022-10-06T00:05:34.416Z,0.40
2022-10-06T00:08:02.798Z,0.98
2022-10-06T00:10:30.420Z,0.77
2022-10-06T00:12:57.885Z,0.93
2022-10-06T00:15:28.243Z,0.50
2022-10-06T00:17:56.242Z,0.40
2022-10-06T00:20:24.587Z,0.80
2022-10-06T00:22:52.073Z,0.60
2022-10-06T00:25:21.906Z,0.55
2022-10-06T00:27:51.042Z,0.70
2022-10-06T00:30:21.376Z,0.82
2022-10-06T00:33:00.894Z,0.75
2022-10-06T00:35:34.522Z,0.70
2022-10-06T00:38:01.866Z,0.80
2022-10-06T00:40:29.482Z,0.60
2022-10-06T00:42:58.084Z,0.60
2022-10-06T00:45:36.721Z,0.90
2022-10-06T00:48:10.561Z,0.55
2022-10-06T00:50:38.876Z,0.88
2022-10-06T00:53:06.245Z,0.70
2022-10-06T00:55:33.396Z,0.60
2022-10-06T00:58:01.319Z,0.80
2022-10-06T01:00:28.680Z,0.68
2022-10-06T01:03:02.714Z,0.45
2022-10-06T01:05:37.197Z,0.65
2022-10-06T01:08:04.339Z,0.80
2022-10-06T01:10:31.376Z,0.70
2022-10-06T01:12:59.296Z,0.70
2022-10-06T01:15:28.242Z,0.60
2022-10-06T01:18:03.085Z,0.63
2022-10-06T01:20:30.814Z,0.52
2022-10-06T01:23:06.900Z,1.08
2022-10-06T01:25:34.865Z,0.52
2022-10-06T01:28:05.495Z,1.15
2022-10-06T01:30:39.435Z,0.63
2022-10-06T01:33:06.819Z,0.63
2022-10-06T01:35:34.219Z,0.65
2022-10-06T01:38:01.310Z,0.75
2022-10-06T01:40:30.241Z,0.63
2022-10-06T01:43:00.444Z,0.70
2022-10-06T01:45:28.700Z,0.80
2022-10-06T01:47:55.866Z,0.90
2022-10-06T01:50:23.098Z,0.70
2022-10-06T01:52:50.183Z,0.70
2022-10-06T01:55:17.441Z,1.45
2022-10-06T01:57:45.036Z,0.93
2022-10-06T02:00:13.001Z,0.80
2022-10-06T02:02:40.562Z,0.75
2022-10-06T02:05:08.349Z,0.95
2022-10-06T02:07:38.573Z,1.30
2022-10-06T02:10:06.795Z,1.00
2022-10-06T02:12:35.198Z,1.15
2022-10-06T02:15:02.720Z,0.98
2022-10-06T02:17:29.868Z,1.10
2022-10-06T02:19:56.955Z,0.90
2022-10-06T02:22:24.055Z,0.98
2022-10-06T02:24:51.249Z,0.60
2022-10-06T02:27:18.455Z,0.77
2022-10-06T02:29:45.532Z,1.10
2022-10-06T02:32:14.952Z,0.77
2022-10-06T02:34:43.591Z,1.00
2022-10-06T02:37:12.668Z,1.63
2022-10-06T02:39:39.744Z,1.13
2022-10-06T02:42:08.767Z,1.35
2022-10-06T02:44:39.801Z,1.27
2022-10-06T02:47:14.168Z,1.55
2022-10-06T02:49:41.361Z,1.30
2022-10-06T02:52:08.736Z,1.38
2022-10-06T02:54:36.743Z,1.15
2022-10-06T02:57:03.831Z,1.35
2022-10-06T02:59:31.114Z,1.55
2022-10-06T03:01:58.472Z,1.25
2022-10-06T03:04:25.714Z,1.98
2022-10-06T03:06:52.766Z,1.30
2022-10-06T03:09:22.630Z,1.48
2022-10-06T03:11:51.248Z,1.42
2022-10-06T03:14:28.332Z,1.40
2022-10-06T03:16:56.945Z,1.92
2022-10-06T03:19:26.732Z,1.55
2022-10-06T03:21:54.458Z,1.95
2022-10-06T03:24:26.087Z,1.58
2022-10-06T03:26:56.854Z,1.90
2022-10-06T03:29:24.099Z,1.60
2022-10-06T03:31:54.810Z,2.28
2022-10-06T03:34:22.328Z,1.50
2022-10-06T03:36:49.663Z,1.40
2022-10-06T03:39:20.576Z,1.70
2022-10-06T03:41:49.437Z,1.42
2022-10-06T03:44:16.790Z,2.67
2022-10-06T03:46:47.457Z,1.30
2022-10-06T03:49:15.070Z,1.73
2022-10-06T03:51:43.522Z,2.20
2022-10-06T03:54:16.078Z,1.30
2022-10-06T03:56:45.717Z,1.40
2022-10-06T03:59:17.296Z,1.60
2022-10-06T04:01:48.170Z,1.27
2022-10-06T04:06:50.523Z,2.22
2022-10-06T04:09:19.973Z,1.90
2022-10-06T04:11:47.834Z,2.08
2022-10-06T04:14:16.767Z,1.60
2022-10-06T04:16:48.228Z,2.17
2022-10-06T04:19:19.012Z,2.03
2022-10-06T04:21:49.818Z,1.83
2022-10-06T04:24:20.893Z,2.05
2022-10-06T04:26:50.076Z,2.13
2022-10-06T04:29:18.774Z,1.55
2022-10-06T04:31:50.670Z,1.70
2022-10-06T04:34:23.112Z,1.85
2022-10-06T04:36:50.390Z,1.98
2022-10-06T04:39:18.928Z,1.65
2022-10-06T04:41:47.400Z,1.50
2022-10-06T04:44:27.415Z,1.50
2022-10-06T04:46:56.697Z,2.10
2022-10-06T04:49:24.194Z,1.65
2022-10-06T04:51:53.290Z,2.22
2022-10-06T04:54:21.350Z,2.67
2022-10-06T04:56:53.485Z,1.83
2022-10-06T04:59:43.298Z,2.78
2022-10-06T05:02:11.942Z,1.98
2022-10-06T05:04:39.682Z,1.85
2022-10-06T05:07:07.585Z,1.98
2022-10-06T05:09:34.885Z,1.90
2022-10-06T05:12:03.181Z,2.03
2022-10-06T05:14:33.395Z,2.47
2022-10-06T05:17:00.934Z,1.50
2022-10-06T05:19:29.507Z,2.40
2022-10-06T05:21:57.165Z,2.25
2022-10-06T05:24:27.439Z,2.05
2022-10-06T05:26:58.306Z,2.03
2022-10-06T05:29:28.453Z,1.98
2022-10-06T05:31:55.587Z,1.80
2022-10-06T05:34:23.206Z,2.42
2022-10-06T05:36:51.641Z,2.00
2022-10-06T05:39:18.750Z,2.25
2022-10-06T05:41:50.034Z,2.45
2022-10-06T05:44:17.291Z,2.05
2022-10-06T05:46:45.392Z,2.10
2022-10-06T05:49:13.421Z,2.45
2022-10-06T05:51:45.749Z,1.95
2022-10-06T05:54:23.916Z,2.05
2022-10-06T05:56:53.492Z,1.75
2022-10-06T05:59:22.818Z,2.47
2022-10-06T06:01:52.100Z,1.88
2022-10-06T06:04:27.438Z,1.65
2022-10-06T06:06:56.725Z,2.28
2022-10-06T06:09:26.349Z,2.25
2022-10-06T06:11:55.462Z,2.22
2022-10-06T06:15:00.361Z,1.63
2022-10-06T06:17:33.700Z,2.17
2022-10-06T06:20:03.291Z,1.98
2022-10-06T06:22:30.419Z,1.73
2022-10-06T06:24:57.460Z,1.63
2022-10-06T06:27:24.878Z,1.95
2022-10-06T06:29:52.957Z,2.20
2022-10-06T06:32:20.155Z,2.60
2022-10-06T06:34:47.320Z,2.03
2022-10-06T06:37:15.559Z,2.22
2022-10-06T06:39:45.743Z,1.95
2022-10-06T06:42:12.938Z,2.63
2022-10-06T06:44:41.253Z,1.88
2022-10-06T06:47:18.456Z,1.77
2022-10-06T06:49:47.519Z,2.03
2022-10-06T06:52:15.368Z,2.40
2022-10-06T06:54:42.430Z,1.92
2022-10-06T06:57:13.420Z,2.55
2022-10-06T06:59:40.617Z,1.92
2022-10-06T07:02:11.943Z,2.15
2022-10-06T07:04:43.811Z,2.00
2022-10-06T07:07:13.871Z,1.75
2022-10-06T07:09:41.890Z,2.85
2022-10-06T07:12:11.614Z,2.85
2022-10-06T07:15:02.796Z,2.05
2022-10-06T07:17:50.706Z,2.03
2022-10-06T07:20:36.928Z,2.00
2022-10-06T07:23:23.731Z,2.30
2022-10-06T07:25:53.272Z,2.25
2022-10-06T07:28:21.515Z,1.83
2022-10-06T07:30:48.668Z,2.45
2022-10-06T07:33:19.810Z,2.10
2022-10-06T07:35:48.497Z,1.90
2022-10-06T07:38:18.607Z,2.00
2022-10-06T07:41:17.861Z,1.92
2022-10-06T07:43:44.670Z,2.30
2022-10-06T07:46:12.271Z,2.30
2022-10-06T07:48:43.168Z,1.83
2022-10-06T07:51:15.908Z,2.20
2022-10-06T07:53:50.866Z,2.42
2022-10-06T07:56:26.973Z,2.17
2022-10-06T07:58:58.539Z,2.30
2022-10-06T08:01:30.695Z,2.33
2022-10-06T08:03:58.019Z,2.10
2022-10-06T08:06:25.106Z,1.95
2022-10-06T08:08:56.576Z,2.80
2022-10-06T08:11:23.897Z,2.65
2022-10-06T08:13:52.007Z,2.60
2022-10-06T08:16:22.601Z,2.58
2022-10-06T08:18:53.381Z,2.20
2022-10-06T08:21:28.974Z,3.00
2022-10-06T08:23:58.081Z,2.25
2022-10-06T08:26:26.788Z,2.20
2022-10-06T08:28:57.574Z,3.45
2022-10-06T08:31:24.890Z,3.83
2022-10-06T08:33:56.796Z,2.92
2022-10-06T08:36:30.941Z,2.50
2022-10-06T08:38:58.825Z,2.72
2022-10-06T08:41:32.057Z,3.28
2022-10-06T08:44:01.878Z,2.83
2022-10-06T08:46:36.406Z,2.67
2022-10-06T08:49:03.771Z,2.63
2022-10-06T08:52:01.105Z,2.20
2022-10-06T08:54:45.121Z,2.35
2022-10-06T08:57:21.433Z,3.28
2022-10-06T08:59:53.431Z,2.40
2022-10-06T09:02:41.642Z,3.05
2022-10-06T09:05:13.098Z,3.10
2022-10-06T09:08:01.952Z,2.72
2022-10-06T09:10:42.283Z,2.30
2022-10-06T09:13:21.929Z,2.22
2022-10-06T09:15:55.443Z,2.92
2022-10-06T09:19:07.097Z,2.30
2022-10-06T09:21:35.161Z,3.45
2022-10-06T09:24:12.602Z,2.58
2022-10-06T09:26:46.450Z,2.95
2022-10-06T09:29:14.695Z,2.90
2022-10-06T09:31:44.734Z,2.90
2022-10-06T09:34:52.024Z,2.65
2022-10-06T09:37:19.417Z,2.05
2022-10-06T09:39:50.295Z,2.22
2022-10-06T09:42:19.608Z,2.45
2022-10-06T09:45:24.621Z,2.15
2022-10-06T09:50:25.938Z,2.00
2022-10-06T09:55:52.117Z,1.90
2022-10-06T09:58:23.188Z,2.55
2022-10-06T10:01:03.061Z,2.25
2022-10-06T10:06:40.597Z,2.38
2022-10-06T10:09:20.610Z,1.77
2022-10-06T10:12:24.549Z,4.53
2022-10-06T10:14:53.094Z,2.20
2022-10-06T10:17:33.722Z,1.90
2022-10-06T10:20:02.698Z,2.80
2022-10-06T10:22:42.048Z,2.20
2022-10-06T10:25:29.325Z,2.30
2022-10-06T10:28:23.406Z,2.05
2022-10-06T10:31:00.727Z,1.90
2022-10-06T10:34:05.166Z,1.83
2022-10-06T10:36:48.273Z,2.15
2022-10-06T10:39:27.974Z,2.10
2022-10-06T10:41:59.060Z,1.77
2022-10-06T10:44:36.643Z,2.80
2022-10-06T10:47:33.736Z,2.05
2022-10-06T10:50:08.685Z,2.20
2022-10-06T10:52:42.402Z,1.60
2022-10-06T10:55:29.733Z,1.95
2022-10-06T10:58:11.633Z,1.83
2022-10-06T11:00:43.194Z,2.47
2022-10-06T11:03:11.731Z,2.13
2022-10-06T11:06:08.280Z,2.65
2022-10-06T11:08:45.472Z,1.80
2022-10-06T11:11:20.453Z,1.50
2022-10-06T11:13:51.487Z,1.92
2022-10-06T11:16:47.504Z,2.30
2022-10-06T11:19:16.706Z,1.90
2022-10-06T11:22:09.552Z,2.28
2022-10-06T11:24:57.609Z,2.15
2022-10-06T11:27:43.207Z,1.77
2022-10-06T11:30:19.397Z,1.70
2022-10-06T11:32:52.555Z,1.45
2022-10-06T11:35:26.962Z,1.83
2022-10-06T11:38:03.679Z,1.75
2022-10-06T11:40:52.816Z,1.63
2022-10-06T11:43:51.889Z,2.20
2022-10-06T11:49:32.550Z,1.30
2022-10-06T11:52:08.034Z,1.85
2022-10-06T11:54:45.436Z,2.15
2022-10-06T11:57:30.690Z,1.55
2022-10-06T12:00:04.384Z,1.98
2022-10-06T12:02:39.644Z,1.80
2022-10-06T12:05:55.848Z,1.83
2022-10-06T12:08:18.130Z,1.40
2022-10-06T12:10:51.071Z,1.30
2022-10-06T12:14:26.663Z,1.90
2022-10-06T12:19:43.633Z,1.52
2022-10-06T12:22:20.602Z,1.58
2022-10-06T12:25:03.155Z,2.00
2022-10-06T12:27:52.271Z,1.50
2022-10-06T12:30:46.814Z,2.00
2022-10-06T12:35:46.027Z,1.50
2022-10-06T12:38:31.285Z,1.73
2022-10-06T12:40:59.574Z,1.58
2022-10-06T12:43:32.854Z,2.33
2022-10-06T12:46:01.190Z,2.30
2022-10-06T12:48:37.504Z,1.73
2022-10-06T12:51:18.625Z,1.70
2022-10-06T12:53:58.811Z,1.60
2022-10-06T12:56:28.294Z,1.95
2022-10-06T12:58:55.810Z,1.33
2022-10-06T13:01:24.109Z,1.52
2022-10-06T13:03:53.855Z,2.05
2022-10-06T13:06:24.344Z,1.60
2022-10-06T13:09:06.717Z,1.65
2022-10-06T13:11:33.908Z,1.75
2022-10-06T13:14:10.417Z,1.27
2022-10-06T13:16:41.850Z,1.85
2022-10-06T13:19:17.056Z,2.22
2022-10-06T13:21:44.900Z,1.88
2022-10-06T13:24:14.461Z,1.60
2022-10-06T13:26:42.006Z,1.55
2022-10-06T13:29:18.513Z,2.00
2022-10-06T13:31:51.894Z,1.60
2022-10-06T13:34:34.803Z,1.38
2022-10-06T13:37:02.387Z,1.55
2022-10-06T13:39:32.363Z,1.50
2022-10-06T13:42:04.062Z,1.23
2022-10-06T13:44:44.883Z,1.15
2022-10-06T13:47:21.297Z,1.80
2022-10-06T13:50:03.479Z,1.33
2022-10-06T13:52:43.357Z,2.08
2022-10-06T13:55:18.582Z,1.63
2022-10-06T13:57:49.902Z,1.23
2022-10-06T14:00:19.708Z,1.30
2022-10-06T14:02:49.636Z,1.45
2022-10-06T14:05:26.966Z,1.25
2022-10-06T14:07:58.219Z,1.50
2022-10-06T14:10:59.328Z,1.58
2022-10-06T14:13:30.665Z,1.52
2022-10-06T14:16:04.441Z,1.13
2022-10-06T14:18:43.963Z,1.50
2022-10-06T14:21:33.670Z,1.85
2022-10-06T14:24:06.146Z,2.10
2022-10-06T14:26:40.521Z,1.30
2022-10-06T14:29:07.655Z,1.05
2022-10-06T14:31:34.964Z,1.33
2022-10-06T14:34:03.437Z,1.27
2022-10-06T14:36:36.799Z,1.38
2022-10-06T14:39:05.587Z,1.00
2022-10-06T14:41:33.066Z,1.48
2022-10-06T14:44:12.128Z,1.42
2022-10-06T14:46:41.291Z,1.77
2022-10-06T14:49:10.394Z,1.52
2022-10-06T14:51:38.971Z,1.58
2022-10-06T14:54:08.113Z,1.05
2022-10-06T14:56:37.701Z,1.20
2022-10-06T14:59:08.145Z,1.33
2022-10-06T15:01:37.562Z,1.05
2022-10-06T15:04:19.611Z,1.27
2022-10-06T15:07:05.892Z,1.75
2022-10-06T15:09:33.014Z,1.20
2022-10-06T15:12:00.224Z,1.20
2022-10-06T15:14:30.022Z,1.80
2022-10-06T15:17:00.978Z,1.10
2022-10-06T15:19:28.140Z,1.20
2022-10-06T15:21:55.276Z,1.30
2022-10-06T15:24:22.310Z,1.17
2022-10-06T15:27:08.071Z,1.38
2022-10-06T15:29:35.278Z,1.60
2022-10-06T15:32:04.114Z,1.52
2022-10-06T15:34:33.797Z,2.13
2022-10-06T15:37:01.351Z,1.35
2022-10-06T15:39:30.967Z,1.48
2022-10-06T15:41:58.189Z,1.00
2022-10-06T15:44:25.352Z,1.20
2022-10-06T15:46:54.740Z,1.20
2022-10-06T15:49:26.894Z,1.48
2022-10-06T15:51:56.681Z,0.98
2022-10-06T15:54:28.013Z,1.10
2022-10-06T15:57:00.500Z,1.10
2022-10-06T15:59:28.865Z,1.40
2022-10-06T16:01:59.764Z,1.10
2022-10-06T16:04:47.200Z,2.15
2022-10-06T16:07:23.574Z,1.20
2022-10-06T16:09:51.706Z,1.30
2022-10-06T16:12:21.609Z,1.25
2022-10-06T16:14:49.026Z,1.30
2022-10-06T16:17:18.749Z,1.60
2022-10-06T16:19:47.008Z,1.45
2022-10-06T16:22:16.764Z,1.20
2022-10-06T16:24:44.086Z,1.08
2022-10-06T16:27:12.842Z,1.55
2022-10-06T16:29:40.316Z,1.17
2022-10-06T16:32:07.408Z,1.33
2022-10-06T16:34:34.456Z,1.20
2022-10-06T16:37:01.610Z,1.17
2022-10-06T16:39:28.755Z,1.60
2022-10-06T16:41:58.353Z,1.30
2022-10-06T16:44:25.460Z,1.77
2022-10-06T16:46:52.561Z,1.70
2022-10-06T16:49:19.848Z,1.92
2022-10-06T16:51:46.976Z,2.42
2022-10-06T16:54:17.117Z,2.60
2022-10-06T16:56:46.670Z,2.28
2022-10-06T16:59:19.169Z,1.90
2022-10-06T17:01:51.105Z,1.90
2022-10-06T17:04:20.619Z,2.22
2022-10-06T17:06:51.410Z,1.42
2022-10-06T17:09:24.949Z,1.17
2022-10-06T17:12:00.108Z,1.20
2022-10-06T17:14:28.697Z,3.53
2022-10-06T17:16:56.679Z,2.85
2022-10-06T17:19:26.108Z,1.83
2022-10-06T17:21:58.600Z,1.98
2022-10-06T17:24:31.285Z,1.58
2022-10-06T17:26:58.994Z,1.40
2022-10-06T17:29:46.561Z,1.63
2022-10-06T17:32:15.249Z,1.17
2022-10-06T17:34:42.370Z,1.40
2022-10-06T17:37:09.424Z,1.23
2022-10-06T17:39:36.831Z,1.58
2022-10-06T17:42:04.339Z,1.60
2022-10-06T17:44:31.779Z,1.50
2022-10-06T17:47:00.529Z,1.70
2022-10-06T17:49:30.571Z,1.60
2022-10-06T17:51:57.750Z,2.00
2022-10-06T17:54:27.204Z,1.58
2022-10-06T17:56:56.771Z,2.00
2022-10-06T17:59:33.068Z,1.98
2022-10-06T18:02:02.667Z,1.83
2022-10-06T18:04:30.457Z,1.90
2022-10-06T18:06:57.581Z,1.60
2022-10-06T18:09:24.913Z,2.00
2022-10-06T18:11:56.555Z,2.22
2022-10-06T18:14:26.836Z,2.72
2022-10-06T18:16:57.458Z,2.95
2022-10-06T18:19:26.564Z,2.58
2022-10-06T18:21:56.502Z,2.50
2022-10-06T18:24:26.514Z,4.70
2022-10-06T18:26:55.968Z,3.38
2022-10-06T18:29:27.955Z,2.72
2022-10-06T18:32:09.397Z,2.08
2022-10-06T18:36:10.571Z,1.90
2022-10-06T18:37:35.229Z,1.70
2022-10-06T18:40:05.893Z,1.80
2022-10-06T18:42:33.189Z,2.92
2022-10-06T18:45:18.659Z,1.75
2022-10-06T18:48:06.435Z,1.90
2022-10-06T18:50:35.897Z,1.88
2022-10-06T18:53:04.184Z,1.60
2022-10-06T18:55:32.485Z,1.73
2022-10-06T18:57:59.596Z,1.88
2022-10-06T19:00:27.282Z,1.75
2022-10-06T19:02:56.893Z,1.60
2022-10-06T19:05:24.448Z,1.67
2022-10-06T19:07:55.286Z,1.60
2022-10-06T19:10:22.380Z,1.80
2022-10-06T19:12:49.665Z,1.33
2022-10-06T19:15:21.030Z,2.25
2022-10-06T19:17:52.296Z,1.58
2022-10-06T19:20:22.209Z,1.95
2022-10-06T19:22:51.611Z,1.80
2022-10-06T19:25:19.202Z,1.60
2022-10-06T19:27:46.838Z,1.98
2022-10-06T19:30:14.538Z,1.50
2022-10-06T19:32:41.660Z,3.03
2022-10-06T19:35:10.611Z,2.08
2022-10-06T19:37:39.029Z,2.75
2022-10-06T19:40:11.164Z,2.20
2022-10-06T19:42:47.194Z,2.13
2022-10-06T19:45:16.045Z,2.60
2022-10-06T19:47:44.978Z,2.13
2022-10-06T19:50:13.431Z,2.15
2022-10-06T19:52:41.867Z,2.38
2022-10-06T19:55:08.920Z,1.90
2022-10-06T19:57:35.965Z,1.95
2022-10-06T20:00:05.872Z,2.17
2022-10-06T20:02:42.809Z,1.85
2022-10-06T20:05:15.875Z,1.70
2022-10-06T20:07:45.284Z,1.98
2022-10-06T20:10:13.288Z,1.67
2022-10-06T20:12:43.443Z,1.63
2022-10-06T20:15:12.712Z,2.00
2022-10-06T20:17:42.373Z,1.58
2022-10-06T20:20:10.110Z,1.98
2022-10-06T20:22:37.151Z,1.75
2022-10-06T20:25:07.006Z,1.77
2022-10-06T20:27:34.059Z,1.70
2022-10-06T20:30:01.099Z,1.80
2022-10-06T20:32:28.135Z,2.00
2022-10-06T20:34:55.268Z,1.73
2022-10-06T20:37:22.330Z,1.45
2022-10-06T20:40:08.071Z,1.85
2022-10-06T20:42:35.089Z,1.65
2022-10-06T20:45:02.280Z,1.77
2022-10-06T20:47:29.979Z,1.55
2022-10-06T20:49:57.066Z,1.65
2022-10-06T20:52:24.277Z,1.63
2022-10-06T20:54:51.466Z,2.45
2022-10-06T20:57:18.545Z,1.70
2022-10-06T20:59:46.076Z,1.70
2022-10-06T21:02:13.487Z,1.85
2022-10-06T21:04:43.543Z,1.80
2022-10-06T21:07:11.230Z,2.22
2022-10-06T21:09:38.467Z,1.88
2022-10-06T21:12:05.632Z,2.03
2022-10-06T21:14:35.194Z,1.70
2022-10-06T21:17:02.306Z,1.70
2022-10-06T21:19:30.034Z,1.88
2022-10-06T21:21:57.250Z,1.77
2022-10-06T21:24:24.439Z,1.83
2022-10-06T21:26:52.767Z,1.90
2022-10-06T21:29:20.579Z,2.22
2022-10-06T21:31:47.791Z,2.13
2022-10-06T21:34:14.967Z,1.60
2022-10-06T21:36:43.854Z,1.88
2022-10-06T21:39:12.220Z,1.90
2022-10-06T21:41:40.365Z,2.78
2022-10-06T21:44:12.061Z,1.90
2022-10-06T21:46:42.396Z,2.05
2022-10-06T21:49:12.031Z,2.75
2022-10-06T21:51:41.132Z,1.88
2022-10-06T21:54:10.418Z,2.38
2022-10-06T21:56:38.037Z,2.15
2022-10-06T21:59:05.561Z,2.13
2022-10-06T22:01:35.556Z,2.17
2022-10-06T22:04:02.834Z,1.83
2022-10-06T22:06:32.033Z,1.98
2022-10-06T22:08:59.828Z,1.90
2022-10-06T22:11:30.460Z,2.05
2022-10-06T22:14:02.348Z,1.83
2022-10-06T22:16:32.523Z,1.90
2022-10-06T22:19:02.464Z,2.47
2022-10-06T22:21:41.668Z,2.10
2022-10-06T22:24:13.838Z,2.20
2022-10-06T22:26:44.501Z,1.73
2022-10-06T22:29:14.787Z,2.28
2022-10-06T22:31:43.689Z,2.30
2022-10-06T22:34:13.527Z,1.88
2022-10-06T22:36:41.327Z,1.73
2022-10-06T22:39:08.606Z,2.22
2022-10-06T22:41:36.046Z,1.83
2022-10-06T22:44:03.186Z,2.42
2022-10-06T22:46:32.413Z,1.70
2022-10-06T22:49:00.100Z,2.42
2022-10-06T22:51:27.649Z,2.60
2022-10-06T22:53:58.250Z,2.88
2022-10-06T22:56:27.717Z,2.75
2022-10-06T22:58:55.479Z,2.30
2022-10-06T23:01:22.840Z,2.30
2022-10-06T23:03:49.889Z,2.75
2022-10-06T23:06:17.651Z,2.00
2022-10-06T23:08:44.935Z,2.58
2022-10-06T23:11:14.285Z,2.00
2022-10-06T23:13:43.255Z,2.03
2022-10-06T23:16:13.007Z,1.88
2022-10-06T23:18:41.993Z,2.10
2022-10-06T23:21:18.929Z,1.90
2022-10-06T23:23:46.583Z,2.10
2022-10-06T23:26:16.219Z,1.80
2022-10-06T23:28:43.584Z,1.95
2022-10-06T23:31:10.974Z,2.30
2022-10-06T23:33:38.773Z,2.13
2022-10-06T23:36:11.436Z,2.60
2022-10-06T23:38:39.204Z,1.83
2022-10-06T23:41:07.134Z,2.13
2022-10-06T23:43:34.974Z,2.25
2022-10-06T23:46:02.703Z,1.52
2022-10-06T23:48:30.247Z,2.00
2022-10-06T23:51:03.426Z,1.90
2022-10-06T23:53:31.645Z,3.03
2022-10-06T23:55:58.826Z,1.90
2022-10-06T23:58:29.129Z,1.83
